createdAt,value
2023-04-18T00:01:23.049Z,20.88
2023-04-18T00:03:50.679Z,20.55
2023-04-18T00:06:17.311Z,19.98
2023-04-18T00:08:43.701Z,20.25
2023-04-18T00:11:10.107Z,20.75
2023-04-18T00:13:38.493Z,20.48
2023-04-18T00:16:05.949Z,19.88
2023-04-18T00:18:32.453Z,18.13
2023-04-18T00:20:58.927Z,19.27
2023-04-18T00:23:27.996Z,20.40
2023-04-18T00:25:54.495Z,19.25
2023-04-18T00:28:20.983Z,17.75
2023-04-18T00:30:47.508Z,16.95
2023-04-18T00:33:13.934Z,19.13
2023-04-18T00:35:40.545Z,19.15
2023-04-18T00:38:07.169Z,16.65
2023-04-18T00:40:34.077Z,16.80
2023-04-18T00:43:00.641Z,15.30
2023-04-18T00:45:27.140Z,16.65
2023-04-18T00:47:55.107Z,19.35
2023-04-18T00:50:22.897Z,16.35
2023-04-18T00:52:49.750Z,16.27
2023-04-18T00:55:16.478Z,16.83
2023-04-18T00:57:42.909Z,20.10
2023-04-18T01:00:12.853Z,16.02
2023-04-18T01:02:39.981Z,15.35
2023-04-18T01:05:08.075Z,17.05
2023-04-18T01:07:37.358Z,16.55
2023-04-18T01:10:04.370Z,17.48
2023-04-18T01:12:31.272Z,17.52
2023-04-18T01:14:58.813Z,15.60
2023-04-18T01:17:25.352Z,18.23
2023-04-18T01:19:51.840Z,19.40
2023-04-18T01:22:19.968Z,14.60
2023-04-18T01:24:46.484Z,17.23
2023-04-18T01:27:13.617Z,15.80
2023-04-18T01:29:40.992Z,17.77
2023-04-18T01:32:07.615Z,16.25
2023-04-18T01:34:34.093Z,16.95
2023-04-18T01:37:00.587Z,17.88
2023-04-18T01:39:27.150Z,14.68
2023-04-18T01:41:53.667Z,13.63
2023-04-18T01:44:20.261Z,15.45
2023-04-18T01:46:46.822Z,16.27
2023-04-18T01:49:13.334Z,15.35
2023-04-18T01:51:39.964Z,16.02
2023-04-18T01:54:06.417Z,15.50
2023-04-18T01:56:32.832Z,16.05
2023-04-18T01:58:59.245Z,14.70
2023-04-18T02:01:25.727Z,16.25
2023-04-18T02:03:52.358Z,16.30
2023-04-18T02:06:18.876Z,15.55
2023-04-18T02:08:45.329Z,14.73
2023-04-18T02:11:11.853Z,15.63
2023-04-18T02:13:38.365Z,16.63
2023-04-18T02:16:05.298Z,14.75
2023-04-18T02:18:34.561Z,14.82
2023-04-18T02:21:01.023Z,15.07
2023-04-18T02:23:27.519Z,16.58
2023-04-18T02:25:54.541Z,15.80
2023-04-18T02:28:20.999Z,14.77
2023-04-18T02:30:47.471Z,15.68
2023-04-18T02:33:13.872Z,16.23
2023-04-18T02:35:40.720Z,16.75
2023-04-18T02:38:07.230Z,16.52
2023-04-18T02:40:33.754Z,14.13
2023-04-18T02:43:00.259Z,13.88
2023-04-18T02:45:26.777Z,15.48
2023-04-18T02:47:55.879Z,14.75
2023-04-18T02:50:23.792Z,15.68
2023-04-18T02:52:50.454Z,15.48
2023-04-18T02:55:17.024Z,18.98
2023-04-18T02:57:43.417Z,16.98
2023-04-18T03:00:10.394Z,17.35
2023-04-18T03:02:36.966Z,16.63
2023-04-18T03:05:03.742Z,13.45
2023-04-18T03:07:30.893Z,15.65
2023-04-18T03:09:57.538Z,17.38
2023-04-18T03:12:23.972Z,18.50
2023-04-18T03:14:50.412Z,15.93
2023-04-18T03:17:16.902Z,16.38
2023-04-18T03:19:43.363Z,16.45
2023-04-18T03:22:10.009Z,16.35
2023-04-18T03:24:36.429Z,16.05
2023-04-18T03:27:03.000Z,16.42
2023-04-18T03:29:29.392Z,18.05
2023-04-18T03:31:55.837Z,17.65
2023-04-18T03:34:22.328Z,17.23
2023-04-18T03:36:48.817Z,19.10
2023-04-18T03:39:15.367Z,19.02
2023-04-18T03:41:41.871Z,19.02
2023-04-18T03:44:09.063Z,20.13
2023-04-18T03:46:35.720Z,17.42
2023-04-18T03:49:02.165Z,18.58
2023-04-18T03:51:33.205Z,19.95
2023-04-18T03:53:59.594Z,18.55
2023-04-18T03:56:26.278Z,20.38
2023-04-18T03:58:52.710Z,19.45
2023-04-18T04:01:19.118Z,21.48
2023-04-18T04:03:45.841Z,18.17
2023-04-18T04:06:12.380Z,18.83
2023-04-18T04:08:38.848Z,18.77
2023-04-18T04:11:05.284Z,18.30
2023-04-18T04:13:31.734Z,18.23
2023-04-18T04:15:58.260Z,18.52
2023-04-18T04:18:30.882Z,18.45
2023-04-18T04:20:59.120Z,19.10
2023-04-18T04:23:26.837Z,20.65
2023-04-18T04:25:54.461Z,20.15
2023-04-18T04:28:24.067Z,17.00
2023-04-18T04:30:53.855Z,17.10
2023-04-18T04:33:21.685Z,18.42
2023-04-18T04:35:48.224Z,16.77
2023-04-18T04:38:15.408Z,19.60
2023-04-18T04:40:42.698Z,20.08
2023-04-18T04:43:12.834Z,21.23
2023-04-18T04:45:41.426Z,17.98
2023-04-18T04:50:39.031Z,19.40
2023-04-18T04:53:06.376Z,16.83
2023-04-18T04:55:33.569Z,19.83
2023-04-18T04:58:00.440Z,19.88
2023-04-18T05:00:26.982Z,20.08
2023-04-18T05:02:56.067Z,21.50
2023-04-18T05:05:22.774Z,17.63
2023-04-18T05:07:49.259Z,17.88
2023-04-18T05:10:15.781Z,18.55
2023-04-18T05:12:42.222Z,19.30
2023-04-18T05:15:08.981Z,20.20
2023-04-18T05:17:35.440Z,18.08
2023-04-18T05:20:02.010Z,21.33
2023-04-18T05:22:28.487Z,19.42
2023-04-18T05:24:54.902Z,19.85
2023-04-18T05:27:21.681Z,19.05
2023-04-18T05:29:49.357Z,17.90
2023-04-18T05:32:16.048Z,18.80
2023-04-18T05:34:42.952Z,18.25
2023-04-18T05:37:09.477Z,17.52
2023-04-18T05:39:36.017Z,18.88
2023-04-18T05:42:03.783Z,20.05
2023-04-18T05:44:30.431Z,20.23
2023-04-18T05:46:57.011Z,20.90
2023-04-18T05:49:23.717Z,18.70
2023-04-18T05:51:50.663Z,18.30
2023-04-18T05:54:17.204Z,18.48
2023-04-18T05:56:43.648Z,21.13
2023-04-18T05:59:10.506Z,19.02
2023-04-18T06:01:36.946Z,20.70
2023-04-18T06:04:03.531Z,16.98
2023-04-18T06:06:31.426Z,20.30
2023-04-18T06:08:58.003Z,19.15
2023-04-18T06:11:24.597Z,18.67
2023-04-18T06:13:51.007Z,21.15
2023-04-18T06:16:17.750Z,18.02
2023-04-18T06:18:44.263Z,19.63
2023-04-18T06:21:10.777Z,17.05
2023-04-18T06:23:38.511Z,19.30
2023-04-18T06:26:06.082Z,18.17
2023-04-18T06:28:32.641Z,17.05
2023-04-18T06:30:59.121Z,18.92
2023-04-18T06:33:25.546Z,17.83
2023-04-18T06:35:52.754Z,18.40
2023-04-18T06:38:19.257Z,17.73
2023-04-18T06:40:45.752Z,18.02
2023-04-18T06:43:12.208Z,19.02
2023-04-18T06:45:38.978Z,18.75
2023-04-18T06:48:05.995Z,17.60
2023-04-18T06:50:32.487Z,16.02
2023-04-18T06:52:58.968Z,18.77
2023-04-18T06:55:25.516Z,18.38
2023-04-18T06:57:52.007Z,16.05
2023-04-18T07:00:18.776Z,17.85
2023-04-18T07:02:45.633Z,15.93
2023-04-18T07:05:12.383Z,17.60
2023-04-18T07:07:39.142Z,16.27
2023-04-18T07:10:06.741Z,16.42
2023-04-18T07:12:33.835Z,15.88
2023-04-18T07:15:00.282Z,16.30
2023-04-18T07:17:26.813Z,15.63
2023-04-18T07:19:53.232Z,16.58
2023-04-18T07:22:19.740Z,14.80
2023-04-18T07:24:46.196Z,16.13
2023-04-18T07:27:12.596Z,16.55
2023-04-18T07:29:39.091Z,15.95
2023-04-18T07:32:08.018Z,14.65
2023-04-18T07:34:36.233Z,14.15
2023-04-18T07:37:02.978Z,15.93
2023-04-18T07:39:29.485Z,15.98
2023-04-18T07:41:55.986Z,14.63
2023-04-18T07:44:22.505Z,15.68
2023-04-18T07:46:49.039Z,15.55
2023-04-18T07:49:16.240Z,14.23
2023-04-18T07:51:42.946Z,16.73
2023-04-18T07:54:11.132Z,15.27
2023-04-18T07:56:37.687Z,15.40
2023-04-18T07:59:04.190Z,16.08
2023-04-18T08:01:30.978Z,14.38
2023-04-18T08:04:01.603Z,14.07
2023-04-18T08:06:29.104Z,13.52
2023-04-18T08:08:55.637Z,12.75
2023-04-18T08:11:22.221Z,14.70
2023-04-18T08:13:48.660Z,12.65
2023-04-18T08:16:17.353Z,11.63
2023-04-18T08:18:44.444Z,13.38
2023-04-18T08:21:10.972Z,14.10
2023-04-18T08:23:37.599Z,12.73
2023-04-18T08:26:04.154Z,13.18
2023-04-18T08:28:30.755Z,12.48
2023-04-18T08:30:57.230Z,13.57
2023-04-18T08:33:24.563Z,12.60
2023-04-18T08:35:51.849Z,12.10
2023-04-18T08:38:18.911Z,11.52
2023-04-18T08:40:46.145Z,12.77
2023-04-18T08:43:15.014Z,12.30
2023-04-18T08:45:43.042Z,13.30
2023-04-18T08:48:16.321Z,13.55
2023-04-18T08:50:43.444Z,13.52
2023-04-18T08:53:10.210Z,11.30
2023-04-18T08:55:37.492Z,12.43
2023-04-18T08:58:07.856Z,12.43
2023-04-18T09:00:35.218Z,11.60
2023-04-18T09:03:03.845Z,11.35
2023-04-18T09:05:30.630Z,12.05
2023-04-18T09:07:57.152Z,12.43
2023-04-18T09:10:34.661Z,13.18
2023-04-18T09:13:03.425Z,12.10
2023-04-18T09:15:30.707Z,12.55
2023-04-18T09:17:59.360Z,11.93
2023-04-18T09:20:43.568Z,14.80
2023-04-18T09:23:11.470Z,12.15
2023-04-18T09:25:46.757Z,13.30
2023-04-18T09:28:29.681Z,12.68
2023-04-18T09:30:57.674Z,15.02
2023-04-18T09:33:29.265Z,14.20
2023-04-18T09:35:57.136Z,12.90
2023-04-18T09:38:40.872Z,13.73
2023-04-18T09:41:09.252Z,13.23
2023-04-18T09:43:35.760Z,12.88
2023-04-18T09:46:04.293Z,12.85
2023-04-18T09:48:31.300Z,11.88
2023-04-18T09:51:00.578Z,11.52
2023-04-18T09:53:28.381Z,10.63
2023-04-18T09:55:57.549Z,12.60
2023-04-18T09:58:27.673Z,10.05
2023-04-18T10:00:54.246Z,9.27
2023-04-18T10:03:26.689Z,9.38
2023-04-18T10:05:53.331Z,11.63
2023-04-18T10:08:20.731Z,10.93
2023-04-18T10:10:47.319Z,11.52
2023-04-18T10:13:14.289Z,11.90
2023-04-18T10:15:43.619Z,11.65
2023-04-18T10:18:15.456Z,12.75
2023-04-18T10:20:42.273Z,11.88
2023-04-18T10:23:30.712Z,12.15
2023-04-18T10:25:57.918Z,10.90
2023-04-18T10:28:24.806Z,11.70
2023-04-18T10:30:53.905Z,9.88
2023-04-18T10:33:33.724Z,11.25
2023-04-18T10:36:09.378Z,10.20
2023-04-18T10:38:38.849Z,9.90
2023-04-18T10:41:32.632Z,10.60
2023-04-18T10:44:19.227Z,10.20
2023-04-18T10:46:48.395Z,10.18
2023-04-18T10:49:21.663Z,9.38
2023-04-18T10:54:30.847Z,9.07
2023-04-18T10:57:01.707Z,9.45
2023-04-18T10:59:30.073Z,10.82
2023-04-18T11:02:02.457Z,9.60
2023-04-18T11:04:29.155Z,9.90
2023-04-18T11:06:57.251Z,10.20
2023-04-18T11:09:24.425Z,11.65
2023-04-18T11:12:11.209Z,10.13
2023-04-18T11:14:45.430Z,11.55
2023-04-18T11:17:18.424Z,10.88
2023-04-18T11:19:45.382Z,10.40
2023-04-18T11:22:12.413Z,11.18
2023-04-18T11:24:39.422Z,11.35
2023-04-18T11:27:10.294Z,12.00
2023-04-18T11:29:37.052Z,12.07
2023-04-18T11:32:07.214Z,13.27
2023-04-18T11:34:34.252Z,12.18
2023-04-18T11:37:00.851Z,13.15
2023-04-18T11:39:27.846Z,11.73
2023-04-18T11:41:56.449Z,12.80
2023-04-18T11:44:24.747Z,13.80
2023-04-18T11:46:52.126Z,12.73
2023-04-18T11:49:32.154Z,12.98
2023-04-18T11:51:59.810Z,13.77
2023-04-18T11:54:43.849Z,14.43
2023-04-18T11:57:30.026Z,16.63
2023-04-18T11:59:58.366Z,15.40
2023-04-18T12:02:38.750Z,14.07
2023-04-18T12:07:35.147Z,15.57
2023-04-18T12:10:03.001Z,15.23
2023-04-18T12:12:29.599Z,14.80
2023-04-18T12:15:13.888Z,14.70
2023-04-18T12:17:44.177Z,15.82
2023-04-18T12:20:13.270Z,14.27
2023-04-18T12:22:49.527Z,15.25
2023-04-18T12:25:23.385Z,15.68
2023-04-18T12:27:54.577Z,15.38
2023-04-18T12:30:23.390Z,16.08
2023-04-18T12:32:51.961Z,16.95
2023-04-18T12:35:19.534Z,15.43
2023-04-18T12:37:52.190Z,15.30
2023-04-18T12:40:19.627Z,18.65
2023-04-18T12:42:47.201Z,15.60
2023-04-18T12:45:15.488Z,16.33
2023-04-18T12:47:44.191Z,15.73
2023-04-18T12:50:14.566Z,16.35
2023-04-18T12:52:41.135Z,13.57
2023-04-18T12:55:08.860Z,15.82
2023-04-18T12:57:35.982Z,15.70
2023-04-18T13:00:05.667Z,17.60
2023-04-18T13:02:34.426Z,16.08
2023-04-18T13:05:01.088Z,18.27
2023-04-18T13:07:27.614Z,19.55
2023-04-18T13:09:54.098Z,18.40
2023-04-18T13:12:21.077Z,16.73
2023-04-18T13:14:47.587Z,18.73
2023-04-18T13:17:14.070Z,17.52
2023-04-18T13:19:40.433Z,18.42
2023-04-18T13:22:07.004Z,19.38
2023-04-18T13:24:33.389Z,18.77
2023-04-18T13:27:01.636Z,18.35
2023-04-18T13:29:28.286Z,17.25
2023-04-18T13:31:54.831Z,17.27
2023-04-18T13:34:21.324Z,17.92
2023-04-18T13:36:47.746Z,16.75
2023-04-18T13:39:15.224Z,19.13
2023-04-18T13:41:41.889Z,17.77
2023-04-18T13:44:08.379Z,17.98
2023-04-18T13:46:35.025Z,18.48
2023-04-18T13:49:01.549Z,17.70
2023-04-18T13:51:28.082Z,18.55
2023-04-18T13:53:54.672Z,16.17
2023-04-18T13:56:21.245Z,18.80
2023-04-18T13:58:47.768Z,20.50
2023-04-18T14:01:16.285Z,21.00
2023-04-18T14:03:43.863Z,17.88
2023-04-18T14:06:10.971Z,17.02
2023-04-18T14:08:37.440Z,16.67
2023-04-18T14:11:04.122Z,16.02
2023-04-18T14:13:30.801Z,16.65
2023-04-18T14:15:57.316Z,18.48
2023-04-18T14:18:24.607Z,17.58
2023-04-18T14:20:51.655Z,17.45
2023-04-18T14:23:18.158Z,18.17
2023-04-18T14:25:44.704Z,16.38
2023-04-18T14:28:11.995Z,17.20
2023-04-18T14:30:39.744Z,17.08
2023-04-18T14:33:07.537Z,19.38
2023-04-18T14:35:34.089Z,16.58
2023-04-18T14:38:00.606Z,18.50
2023-04-18T14:40:27.143Z,18.48
2023-04-18T14:42:53.741Z,18.83
2023-04-18T14:45:20.323Z,18.20
2023-04-18T14:47:46.914Z,18.13
2023-04-18T14:50:13.782Z,17.63
2023-04-18T14:52:40.941Z,17.38
2023-04-18T14:55:08.653Z,17.15
2023-04-18T14:57:36.767Z,16.55
2023-04-18T15:00:05.639Z,16.02
2023-04-18T15:02:32.402Z,16.40
2023-04-18T15:04:59.244Z,16.52
2023-04-18T15:07:26.138Z,15.52
2023-04-18T15:09:52.608Z,16.92
2023-04-18T15:12:19.135Z,17.27
2023-04-18T15:14:45.765Z,14.68
2023-04-18T15:17:12.275Z,14.48
2023-04-18T15:19:38.752Z,16.67
2023-04-18T15:22:05.211Z,16.02
2023-04-18T15:24:31.671Z,14.52
2023-04-18T15:26:58.736Z,16.23
2023-04-18T15:29:25.253Z,17.63
2023-04-18T15:31:51.707Z,15.25
2023-04-18T15:34:18.316Z,15.35
2023-04-18T15:36:47.022Z,15.85
2023-04-18T15:39:13.763Z,18.38
2023-04-18T15:41:42.073Z,15.15
2023-04-18T15:44:08.671Z,14.63
2023-04-18T15:46:36.962Z,15.95
2023-04-18T15:49:03.426Z,13.90
2023-04-18T15:51:30.908Z,16.48
2023-04-18T15:53:57.441Z,14.90
2023-04-18T15:56:26.124Z,18.13
2023-04-18T15:58:54.664Z,16.23
2023-04-18T16:01:21.169Z,16.23
2023-04-18T16:03:47.706Z,14.65
2023-04-18T16:06:14.980Z,14.32
2023-04-18T16:08:41.614Z,14.25
2023-04-18T16:11:09.061Z,12.77
2023-04-18T16:13:38.518Z,14.52
2023-04-18T16:16:05.746Z,15.70
2023-04-18T16:18:32.578Z,14.02
2023-04-18T16:20:59.019Z,13.77
2023-04-18T16:23:26.754Z,14.18
2023-04-18T16:25:55.218Z,15.20
2023-04-18T16:28:22.367Z,13.82
2023-04-18T16:30:49.014Z,15.68
2023-04-18T16:33:16.009Z,12.38
2023-04-18T16:35:42.526Z,14.82
2023-04-18T16:38:09.055Z,15.68
2023-04-18T16:40:35.807Z,14.20
2023-04-18T16:43:02.338Z,14.25
2023-04-18T16:45:28.738Z,12.85
2023-04-18T16:47:55.245Z,14.15
2023-04-18T16:50:22.571Z,13.43
2023-04-18T16:52:48.991Z,14.93
2023-04-18T16:55:15.551Z,14.70
2023-04-18T16:57:41.988Z,13.68
2023-04-18T17:00:10.193Z,15.43
2023-04-18T17:02:39.634Z,15.13
2023-04-18T17:05:06.732Z,15.43
2023-04-18T17:07:33.147Z,13.63
2023-04-18T17:09:59.607Z,12.40
2023-04-18T17:12:26.496Z,13.10
2023-04-18T17:14:52.942Z,12.93
2023-04-18T17:17:19.412Z,14.35
2023-04-18T17:19:46.480Z,13.90
2023-04-18T17:22:12.957Z,14.20
2023-04-18T17:24:39.409Z,13.48
2023-04-18T17:27:05.836Z,13.02
2023-04-18T17:29:32.298Z,12.88
2023-04-18T17:31:58.848Z,16.77
2023-04-18T17:34:25.505Z,14.38
2023-04-18T17:36:51.896Z,16.70
2023-04-18T17:39:18.325Z,14.63
2023-04-18T17:41:44.873Z,13.13
2023-04-18T17:44:11.453Z,14.98
2023-04-18T17:46:37.998Z,14.20
2023-04-18T17:49:04.877Z,14.25
2023-04-18T17:51:31.434Z,13.95
2023-04-18T17:53:58.325Z,13.30
2023-04-18T17:56:24.790Z,14.30
2023-04-18T17:58:51.693Z,13.05
2023-04-18T18:01:20.058Z,14.40
2023-04-18T18:06:15.333Z,13.10
2023-04-18T18:08:43.100Z,14.13
2023-04-18T18:11:10.640Z,14.80
2023-04-18T18:13:38.884Z,15.10
2023-04-18T18:16:06.309Z,15.25
2023-04-18T18:18:32.850Z,16.20
2023-04-18T18:20:59.394Z,16.45
2023-04-18T18:23:25.956Z,15.48
2023-04-18T18:25:52.855Z,18.83
2023-04-18T18:28:19.386Z,16.30
2023-04-18T18:30:45.939Z,17.08
2023-04-18T18:33:12.391Z,14.90
2023-04-18T18:35:38.937Z,15.45
2023-04-18T18:38:05.402Z,15.90
2023-04-18T18:40:31.918Z,19.13
2023-04-18T18:42:59.385Z,17.45
2023-04-18T18:45:25.987Z,14.80
2023-04-18T18:47:52.918Z,19.38
2023-04-18T18:50:19.476Z,18.73
2023-04-18T18:52:45.922Z,17.17
2023-04-18T18:55:12.438Z,17.02
2023-04-18T18:57:38.936Z,17.13
2023-04-18T19:00:12.262Z,17.23
2023-04-18T19:02:39.650Z,20.17
2023-04-18T19:05:07.323Z,15.13
2023-04-18T19:07:33.810Z,15.90
2023-04-18T19:10:01.684Z,14.10
2023-04-18T19:12:29.113Z,16.50
2023-04-18T19:14:55.691Z,15.57
2023-04-18T19:17:24.599Z,15.98
2023-04-18T19:19:53.017Z,14.20
2023-04-18T19:22:19.496Z,14.77
2023-04-18T19:24:45.993Z,14.95
2023-04-18T19:27:12.532Z,13.77
2023-04-18T19:29:39.394Z,12.35
2023-04-18T19:32:06.389Z,12.45
2023-04-18T19:34:32.949Z,11.70
2023-04-18T19:37:00.034Z,13.18
2023-04-18T19:39:26.645Z,12.32
2023-04-18T19:41:53.165Z,12.82
2023-04-18T19:44:19.553Z,13.23
2023-04-18T19:46:46.070Z,12.55
2023-04-18T19:49:12.920Z,13.18
2023-04-18T19:51:40.184Z,13.13
2023-04-18T19:54:06.703Z,12.38
2023-04-18T19:56:33.171Z,11.85
2023-04-18T19:58:59.979Z,14.40
2023-04-18T20:01:26.476Z,13.73
2023-04-18T20:03:55.021Z,13.40
2023-04-18T20:06:21.899Z,12.90
2023-04-18T20:08:48.405Z,12.05
2023-04-18T20:11:14.922Z,12.20
2023-04-18T20:13:41.468Z,13.50
2023-04-18T20:16:08.998Z,13.55
2023-04-18T20:18:37.865Z,14.10
2023-04-18T20:21:06.488Z,13.68
2023-04-18T20:23:33.697Z,13.60
2023-04-18T20:26:00.278Z,13.27
2023-04-18T20:28:26.988Z,12.25
2023-04-18T20:30:53.647Z,12.32
2023-04-18T20:33:20.109Z,13.95
2023-04-18T20:35:46.870Z,14.23
2023-04-18T20:38:14.686Z,12.57
2023-04-18T20:40:48.944Z,13.30
2023-04-18T20:43:17.327Z,13.85
2023-04-18T20:45:43.816Z,12.13
2023-04-18T20:48:10.320Z,15.02
2023-04-18T20:50:36.850Z,12.95
2023-04-18T20:53:03.979Z,12.48
2023-04-18T20:55:30.499Z,13.70
2023-04-18T20:57:57.010Z,14.23
2023-04-18T21:00:23.582Z,12.95
2023-04-18T21:02:50.347Z,13.65
2023-04-18T21:05:16.875Z,13.05
2023-04-18T21:07:45.227Z,11.95
2023-04-18T21:10:12.271Z,12.50
2023-04-18T21:12:38.727Z,16.10
2023-04-18T21:15:05.709Z,13.40
2023-04-18T21:17:32.343Z,12.82
2023-04-18T21:19:58.995Z,12.98
2023-04-18T21:22:25.553Z,12.80
2023-04-18T21:24:52.009Z,13.30
2023-04-18T21:27:18.399Z,12.88
2023-04-18T21:29:44.870Z,13.75
2023-04-18T21:32:11.327Z,13.27
2023-04-18T21:34:37.798Z,13.60
2023-04-18T21:37:04.237Z,12.50
2023-04-18T21:39:31.006Z,12.02
2023-04-18T21:41:57.584Z,11.77
2023-04-18T21:44:24.012Z,14.43
2023-04-18T21:46:50.781Z,13.20
2023-04-18T21:49:17.307Z,11.15
2023-04-18T21:51:44.771Z,13.48
2023-04-18T21:54:11.265Z,11.73
2023-04-18T21:56:37.789Z,12.40
2023-04-18T21:59:04.244Z,13.98
2023-04-18T22:01:30.746Z,12.05
2023-04-18T22:03:57.413Z,12.73
2023-04-18T22:06:24.106Z,12.40
2023-04-18T22:08:51.580Z,12.07
2023-04-18T22:11:18.763Z,11.52
2023-04-18T22:13:45.853Z,11.50
2023-04-18T22:16:12.354Z,11.30
2023-04-18T22:18:38.799Z,12.10
2023-04-18T22:21:06.078Z,12.35
2023-04-18T22:23:32.582Z,12.65
2023-04-18T22:25:59.132Z,13.82
2023-04-18T22:28:27.947Z,13.00
2023-04-18T22:30:54.495Z,12.95
2023-04-18T22:33:20.999Z,13.88
2023-04-18T22:35:48.042Z,12.63
2023-04-18T22:38:14.446Z,12.55
2023-04-18T22:40:40.949Z,13.35
2023-04-18T22:43:07.392Z,12.15
2023-04-18T22:45:34.760Z,15.23
2023-04-18T22:48:01.274Z,12.57
2023-04-18T22:50:27.801Z,12.43
2023-04-18T22:52:54.243Z,14.00
2023-04-18T22:55:20.808Z,12.43
2023-04-18T22:57:47.265Z,13.27
2023-04-18T23:00:14.285Z,13.98
2023-04-18T23:02:41.496Z,13.35
2023-04-18T23:05:09.002Z,13.93
2023-04-18T23:07:35.529Z,14.23
2023-04-18T23:10:05.026Z,15.65
2023-04-18T23:12:31.466Z,13.02
2023-04-18T23:14:57.859Z,12.98
2023-04-18T23:17:24.318Z,14.25
2023-04-18T23:19:50.838Z,12.93
2023-04-18T23:22:17.341Z,13.60
2023-04-18T23:24:43.743Z,14.07
2023-04-18T23:27:10.145Z,14.25
2023-04-18T23:29:39.011Z,13.60
2023-04-18T23:32:06.383Z,15.20
2023-04-18T23:34:32.816Z,14.80
2023-04-18T23:37:00.380Z,13.57
2023-04-18T23:39:26.835Z,13.43
2023-04-18T23:41:53.275Z,13.43
2023-04-18T23:44:19.854Z,15.13
2023-04-18T23:46:47.182Z,15.55
2023-04-18T23:49:14.103Z,17.30
2023-04-18T23:51:40.622Z,15.45
2023-04-18T23:54:07.616Z,15.35
2023-04-18T23:56:34.489Z,15.00
2023-04-18T23:59:00.923Z,14.40
